Airfield :
LOGIN :

Register | Disclaimer

   EN    FR    IT 

 










Legend :    VFR   Marginal VFR   IFR   Intensive IFR   Very Intensive IFR
Visi :
Ceiling :
>= 8 km
>= 3000ft
5 to 8 km
1000 to 3000 ft
1500m to 5 km
500 to 1000 ft
800 to 1500m
200 to 500 ft
< 800m
< 200 ft
Symbols :   Thunderstorms  Fog  Heavy snow  Heavy precipitations  Wind > 20 kt
SIGMETs :     Misc.  Thunderstorms  Icing  Turbulence  Mountain Waves  Volcanic Ashes







- Airport Elevation : 458 ft
- Download approach charts


LFSI - St-Dizier

CURRENT METAR :
  • 230200Z AUTO 23004KT 9999 ///TCU 18/12 Q1015

EXPIRED METARs :
  • 230130Z AUTO 22005KT CAVOK 18/12 Q1015
  • 230100Z AUTO 23005KT CAVOK 18/12 Q1015
  • 230030Z AUTO 22007KT CAVOK 19/12 Q1014
  • 230000Z AUTO 22007KT CAVOK 19/12 Q1014
  • 222330Z AUTO 21006KT CAVOK 19/12 Q1014
  • 222300Z AUTO 21005KT CAVOK 19/12 Q1014

TAF TAF LFSI
Valid from the 22 at 21:00 until the 23 at 21:00 UTC


222000Z 2221/2321 20005KT CAVOK
TEMPO 2303/2312 3000 SHRA BKN040CB
No reported NOTAMs for that airfield.



MET'MAP, your aeronautical weather chart ! - Copyright ORBIFLY December 2007 - Disclaimer

ORBIFLY MET'MAP TEAM :

Programming & Development : Alexandra Zaïnal
Concept & Development : Baudouin d'Aumeries
Co-Development & Prog : Marc-Olivier Méhu
Technical & hardware support : Manuel Goepfert

Contact : metmap@orbifly.com




SOURCES & CREDITS :

   NOAA